Time;durP1;ratioP1;P1;durP2;ratioP2;P2;SDS_P1;SDS_P2;PMS_P1;PMS_P2;Temp;Humidity;BMP_temperature;BMP_pressure;BME280_temperature;BME280_humidity;BME280_pressure;Samples;Min_cycle;Max_cycle;Signal;HPM_P1;HPM_P2
2022/04/21 00:01:50;;;;;;;182.43;96.40;;;26.40;99.90;;;;;;5062472;28;20098;-68
2022/04/21 00:04:16;;;;;;;157.60;85.55;;;26.40;99.90;;;;;;5043820;28;20020;-71
2022/04/21 00:06:46;;;;;;;139.32;76.50;;;26.50;99.90;;;;;;5054864;28;20029;-70
2022/04/21 00:09:13;;;;;;;121.13;69.95;;;26.40;99.90;;;;;;5046342;28;20112;-68
2022/04/21 00:11:39;;;;;;;105.78;63.15;;;26.40;99.90;;;;;;5051337;28;20051;-70
2022/04/21 00:14:06;;;;;;;114.68;59.28;;;26.50;99.90;;;;;;5058165;28;20078;-68
2022/04/21 00:16:32;;;;;;;91.80;56.13;;;26.50;99.90;;;;;;5063666;28;20029;-70
2022/04/21 00:18:59;;;;;;;93.82;54.63;;;26.50;99.90;;;;;;5050299;28;20040;-69
2022/04/21 00:24:12;;;;;;;82.75;50.95;;;26.50;99.90;;;;;;5050083;28;20036;-72
2022/04/21 00:26:39;;;;;;;78.30;47.53;;;26.50;99.90;;;;;;5051514;28;20044;-70
2022/04/21 00:29:06;;;;;;;94.63;56.95;;;26.50;99.90;;;;;;5054168;28;20078;-72
2022/04/21 00:31:32;;;;;;;86.55;57.03;;;26.60;99.90;;;;;;5062711;28;20037;-67
2022/04/21 00:33:59;;;;;;;92.30;56.72;;;26.60;99.90;;;;;;5051087;28;20032;-71
2022/04/21 00:36:26;;;;;;;69.65;46.38;;;26.70;99.90;;;;;;5064803;28;20031;-71
2022/04/21 00:38:53;;;;;;;67.25;48.65;;;26.70;99.90;;;;;;5061756;28;20029;-69
2022/04/21 00:41:19;;;;;;;63.92;49.17;;;26.70;99.90;;;;;;5053273;28;20137;-70
2022/04/21 00:43:46;;;;;;;71.32;48.63;;;26.80;99.90;;;;;;5048417;28;20029;-70
2022/04/21 00:46:19;;;;;;;63.97;52.72;;;26.80;99.90;;;;;;5060838;28;20021;-71
2022/04/21 00:49:06;;;;;;;65.78;51.75;;;26.80;99.90;;;;;;5061106;28;20013;-71
2022/04/21 00:51:33;;;;;;;71.38;53.67;;;26.90;99.90;;;;;;5040652;28;20036;-69
2022/04/21 00:54:00;;;;;;;59.88;50.50;;;27.00;99.90;;;;;;5056538;28;20466;-70
2022/04/21 00:56:27;;;;;;;65.80;52.15;;;27.00;99.90;;;;;;5052599;28;20401;-69
2022/04/21 00:58:55;;;;;;;64.47;53.20;;;27.10;99.90;;;;;;5052621;28;20166;-69
2022/04/21 01:04:01;;;;;;;69.57;58.72;;;27.10;99.90;;;;;;5058784;28;20021;-71
2022/04/21 01:06:28;;;;;;;70.10;56.35;;;27.20;99.90;;;;;;5061276;28;20023;-69
2022/04/21 01:08:54;;;;;;;66.47;55.75;;;27.30;99.90;;;;;;5052291;28;20036;-69
2022/04/21 01:11:39;;;;;;;64.47;50.60;;;27.40;99.90;;;;;;5060781;28;20052;-70
2022/04/21 01:14:27;;;;;;;71.75;54.75;;;27.40;99.90;;;;;;5064428;28;20036;-73
2022/04/21 01:19:40;;;;;;;70.80;55.67;;;27.50;99.90;;;;;;5023262;28;20048;-71
2022/04/21 01:22:10;;;;;;;64.03;49.38;;;27.60;99.90;;;;;;5047195;28;20369;-72
2022/04/21 01:24:36;;;;;;;61.78;44.42;;;27.70;99.90;;;;;;5049751;28;20049;-69
2022/04/21 01:27:23;;;;;;;60.30;43.42;;;27.70;99.90;;;;;;5060935;28;20025;-70
2022/04/21 01:29:50;;;;;;;70.38;50.15;;;27.70;99.90;;;;;;5033312;28;20029;-70
2022/04/21 01:32:42;;;;;;;71.88;48.60;;;27.90;99.90;;;;;;5046407;28;20033;-72
2022/04/21 01:35:10;;;;;;;72.97;48.63;;;27.90;99.90;;;;;;5050180;28;20440;-68
2022/04/21 01:42:39;;;;;;;54.92;39.42;;;28.00;99.90;;;;;;5061225;28;20032;-70
2022/04/21 01:45:06;;;;;;;45.58;29.15;;;28.00;99.90;;;;;;5060878;28;20029;-69
2022/04/21 01:47:33;;;;;;;30.60;19.55;;;28.00;99.90;;;;;;5061931;28;20064;-70
2022/04/21 01:49:59;;;;;;;23.05;17.17;;;28.10;99.90;;;;;;5060154;28;20020;-69
2022/04/21 01:52:26;;;;;;;33.50;19.52;;;28.10;99.90;;;;;;5049336;28;20037;-70
2022/04/21 01:54:53;;;;;;;21.13;13.27;;;28.20;99.90;;;;;;5051372;28;20456;-67
2022/04/21 02:00:07;;;;;;;47.38;25.92;;;28.20;99.90;;;;;;5033623;28;20033;-68
2022/04/21 02:02:34;;;;;;;39.83;25.45;;;28.30;99.90;;;;;;5051298;28;20441;-67
2022/04/21 02:05:02;;;;;;;42.35;26.50;;;28.30;99.90;;;;;;5059902;28;20063;-67
2022/04/21 02:07:29;;;;;;;33.33;19.90;;;28.40;99.90;;;;;;5037405;28;20086;-67
2022/04/21 02:09:56;;;;;;;36.28;22.00;;;28.40;99.90;;;;;;5040022;28;20019;-67
2022/04/21 02:12:42;;;;;;;48.80;29.42;;;28.50;99.90;;;;;;5051342;28;20044;-67
2022/04/21 02:15:09;;;;;;;46.42;27.63;;;28.50;99.90;;;;;;5042632;28;20040;-67
2022/04/21 02:17:56;;;;;;;40.83;26.33;;;28.70;99.90;;;;;;5043511;28;20083;-67
2022/04/21 02:20:42;;;;;;;34.33;23.10;;;28.70;99.90;;;;;;5061147;28;20025;-65
2022/04/21 02:23:09;;;;;;;31.67;19.65;;;28.80;99.90;;;;;;5048314;28;20068;-69
2022/04/21 02:25:35;;;;;;;42.40;25.58;;;28.90;99.90;;;;;;5058098;28;20024;-70
2022/04/21 02:28:02;;;;;;;30.30;20.60;;;28.90;99.90;;;;;;5061463;28;20420;-66
2022/04/21 02:30:29;;;;;;;32.90;19.33;;;29.00;99.90;;;;;;5062272;28;20588;-68
2022/04/21 02:32:56;;;;;;;36.25;22.67;;;29.10;99.90;;;;;;5060917;28;20496;-67
2022/04/21 02:35:43;;;;;;;31.92;22.92;;;29.20;99.90;;;;;;5062576;28;20131;-65
2022/04/21 02:38:27;;;;;;;37.88;24.15;;;29.10;99.90;;;;;;5045338;28;20577;-72
2022/04/21 02:40:54;;;;;;;38.95;22.98;;;29.20;99.90;;;;;;5041911;28;20061;-69
2022/04/21 02:44:00;;;;;;;37.03;22.38;;;29.20;99.90;;;;;;5035253;28;20076;-68
2022/04/21 02:46:30;;;;;;;35.10;21.20;;;29.20;99.90;;;;;;5043833;28;20041;-68
2022/04/21 02:49:16;;;;;;;25.83;20.42;;;29.30;99.90;;;;;;5051661;28;20115;-67
2022/04/21 02:51:43;;;;;;;25.90;17.58;;;29.40;99.90;;;;;;5062988;28;20024;-69
2022/04/21 02:59:28;;;;;;;45.80;30.13;;;29.80;99.90;;;;;;5049145;28;20068;-68
2022/04/21 03:07:45;;;;;;;29.27;21.60;;;29.90;99.90;;;;;;5056383;28;20039;-66
2022/04/21 03:12:58;;;;;;;26.90;18.73;;;30.00;99.90;;;;;;5055762;28;20048;-70
2022/04/21 03:15:25;;;;;;;23.95;18.20;;;30.10;99.90;;;;;;5001680;28;20045;-69
2022/04/21 03:17:52;;;;;;;20.33;16.45;;;30.30;99.90;;;;;;5045206;28;20032;-68
2022/04/21 03:25:55;;;;;;;19.27;14.40;;;30.40;99.90;;;;;;5042573;28;20033;-72
2022/04/21 03:28:22;;;;;;;17.00;13.77;;;30.60;99.90;;;;;;5045076;28;20184;-70
2022/04/21 03:33:36;;;;;;;17.67;13.50;;;30.90;99.90;;;;;;5049051;28;20043;-64
2022/04/21 03:36:02;;;;;;;18.27;12.68;;;31.00;99.90;;;;;;5033788;28;20070;-70
2022/04/21 03:38:29;;;;;;;18.20;12.90;;;30.90;99.90;;;;;;5045088;28;20102;-69
2022/04/21 03:40:56;;;;;;;14.35;12.30;;;30.80;99.90;;;;;;5012139;28;20040;-70
2022/04/21 03:43:41;;;;;;;17.52;13.25;;;30.80;99.90;;;;;;5057751;28;20130;-69
2022/04/21 03:46:08;;;;;;;21.27;14.02;;;30.90;99.90;;;;;;5049750;28;20465;-70
2022/04/21 03:48:35;;;;;;;19.73;12.30;;;30.90;99.90;;;;;;5045252;28;20056;-70
2022/04/21 03:51:22;;;;;;;19.67;13.18;;;30.80;99.90;;;;;;5059596;28;20033;-66
2022/04/21 03:53:48;;;;;;;20.75;13.48;;;30.90;99.90;;;;;;5039770;28;20044;-69
2022/04/21 03:56:15;;;;;;;16.70;13.68;;;30.70;99.90;;;;;;5046344;28;20032;-65
2022/04/21 03:59:01;;;;;;;20.90;13.80;;;30.80;99.90;;;;;;5041506;28;20685;-65
2022/04/21 04:01:28;;;;;;;16.90;13.52;;;30.80;99.90;;;;;;5043814;28;20044;-67
2022/04/21 04:03:55;;;;;;;16.25;13.25;;;30.90;99.90;;;;;;5050388;28;20063;-68
2022/04/21 04:11:59;;;;;;;16.90;12.82;;;31.20;99.90;;;;;;5035944;28;20100;-65
2022/04/21 04:15:06;;;;;;;18.90;13.85;;;31.20;99.90;;;;;;5052354;28;20056;-66
2022/04/21 04:17:33;;;;;;;16.35;12.13;;;31.20;99.90;;;;;;5049235;28;20381;-67
2022/04/21 04:20:00;;;;;;;19.35;11.65;;;31.20;99.90;;;;;;5046778;28;20029;-66
2022/04/21 04:22:27;;;;;;;15.07;11.38;;;31.30;99.90;;;;;;5050323;28;20433;-67
2022/04/21 04:24:56;;;;;;;16.67;11.65;;;31.30;99.90;;;;;;5053211;28;20025;-66
2022/04/21 04:30:27;;;;;;;16.55;12.40;;;31.10;99.90;;;;;;5031499;28;20035;-68
2022/04/21 04:32:54;;;;;;;16.38;12.45;;;31.10;99.90;;;;;;5055241;28;20029;-68
2022/04/21 04:35:40;;;;;;;18.63;13.18;;;31.10;99.90;;;;;;5043681;28;20037;-67
2022/04/21 04:38:07;;;;;;;14.27;12.38;;;31.20;99.90;;;;;;5041092;28;20040;-67
2022/04/21 04:40:34;;;;;;;22.05;12.68;;;31.20;99.90;;;;;;5053294;28;20036;-69
2022/04/21 04:43:01;;;;;;;15.07;11.65;;;31.10;99.90;;;;;;5043949;28;20041;-67
2022/04/21 04:48:25;;;;;;;21.67;12.85;;;31.20;99.90;;;;;;5034646;28;20108;-67
2022/04/21 04:50:51;;;;;;;12.95;11.65;;;31.30;99.90;;;;;;5041023;28;20028;-65
2022/04/21 04:53:18;;;;;;;15.13;11.60;;;31.40;99.90;;;;;;5043767;28;20124;-67
2022/04/21 04:56:04;;;;;;;14.23;12.02;;;31.50;99.90;;;;;;5046843;28;20033;-66
2022/04/21 04:58:31;;;;;;;14.48;12.68;;;31.60;99.90;;;;;;5042603;28;20048;-68
2022/04/21 05:00:58;;;;;;;20.23;14.40;;;31.60;99.90;;;;;;5032275;28;20047;-66
2022/04/21 05:03:25;;;;;;;18.80;13.60;;;31.60;99.90;;;;;;5039227;28;20154;-67
2022/04/21 05:06:10;;;;;;;16.30;12.20;;;31.70;99.90;;;;;;5031974;28;20037;-70
2022/04/21 05:08:54;;;;;;;15.93;12.90;;;31.80;99.90;;;;;;5046365;28;20036;-68
2022/04/21 05:11:21;;;;;;;20.00;11.20;;;31.90;99.90;;;;;;5034923;28;20104;-69
2022/04/21 05:13:48;;;;;;;13.73;12.25;;;32.20;99.90;;;;;;5042472;28;20041;-69
2022/04/21 05:16:14;;;;;;;14.32;12.82;;;32.10;99.90;;;;;;5054743;28;20029;-68
2022/04/21 05:18:41;;;;;;;19.73;12.95;;;32.10;99.90;;;;;;5053263;28;20095;-67
2022/04/21 05:21:08;;;;;;;14.77;11.88;;;32.10;99.90;;;;;;5031392;28;20029;-67
2022/04/21 05:23:38;;;;;;;17.73;12.75;;;32.10;99.90;;;;;;5045920;28;20563;-68
2022/04/21 05:26:05;;;;;;;20.83;13.38;;;32.20;99.90;;;;;;5042447;28;20029;-68
2022/04/21 05:28:32;;;;;;;15.52;12.80;;;32.20;99.90;;;;;;5054242;28;20029;-67
2022/04/21 05:31:00;;;;;;;14.35;11.68;;;32.20;99.60;;;;;;5051149;28;20045;-68
2022/04/21 05:33:28;;;;;;;16.25;11.68;;;32.10;99.90;;;;;;5054566;28;20071;-67
2022/04/21 05:35:57;;;;;;;17.50;13.40;;;31.90;99.90;;;;;;5053627;28;20025;-67
2022/04/21 05:38:25;;;;;;;19.80;13.45;;;31.90;99.90;;;;;;5054359;28;20040;-67
2022/04/21 05:40:52;;;;;;;14.95;12.32;;;31.90;99.90;;;;;;5052918;28;20025;-68
2022/04/21 05:43:20;;;;;;;20.98;12.07;;;32.10;99.90;;;;;;5053398;28;20075;-67
2022/04/21 05:45:48;;;;;;;16.42;11.00;;;32.20;99.70;;;;;;5053793;28;20021;-67
2022/04/21 05:48:16;;;;;;;13.43;10.77;;;32.40;99.10;;;;;;5054478;28;20060;-67
2022/04/21 05:50:45;;;;;;;15.25;11.52;;;32.40;98.00;;;;;;5052784;28;20195;-68
2022/04/21 05:53:22;;;;;;;14.05;11.77;;;32.30;97.90;;;;;;5045539;28;20105;-68
2022/04/21 05:55:50;;;;;;;14.93;10.10;;;32.20;98.50;;;;;;5051157;28;20033;-67
2022/04/21 05:58:17;;;;;;;13.52;10.32;;;32.10;98.50;;;;;;5034694;28;20104;-68
2022/04/21 06:00:44;;;;;;;12.45;9.98;;;32.00;98.60;;;;;;5043585;28;20032;-68
2022/04/21 06:03:11;;;;;;;14.73;10.93;;;32.00;99.40;;;;;;5053003;28;20064;-67
2022/04/21 06:05:39;;;;;;;12.60;10.88;;;32.30;99.10;;;;;;5044864;28;20029;-69
2022/04/21 06:08:06;;;;;;;15.65;11.18;;;32.60;98.40;;;;;;5039091;28;20125;-68
2022/04/21 06:10:36;;;;;;;14.18;12.32;;;32.70;97.80;;;;;;5049617;28;20091;-69
2022/04/21 06:13:03;;;;;;;13.48;11.88;;;32.70;98.10;;;;;;5047964;28;20052;-67
2022/04/21 06:15:31;;;;;;;18.83;12.95;;;32.90;97.70;;;;;;5044867;28;20323;-65
2022/04/21 06:17:58;;;;;;;14.90;12.10;;;33.10;96.80;;;;;;5047984;28;20068;-66
2022/04/21 06:20:26;;;;;;;14.60;12.48;;;33.10;96.20;;;;;;5052029;28;20025;-68
2022/04/21 06:22:54;;;;;;;16.73;12.43;;;33.20;96.20;;;;;;5049426;28;20040;-68
2022/04/21 06:25:21;;;;;;;13.75;11.90;;;33.30;96.20;;;;;;5049758;28;20049;-65
2022/04/21 06:27:49;;;;;;;13.05;11.75;;;33.40;94.60;;;;;;5051694;28;20458;-66
2022/04/21 06:30:16;;;;;;;15.63;14.00;;;33.40;93.50;;;;;;5051704;28;20025;-66
2022/04/21 06:32:43;;;;;;;15.88;14.18;;;33.30;94.80;;;;;;5051933;28;20029;-68
2022/04/21 06:35:10;;;;;;;17.15;13.68;;;33.20;94.40;;;;;;5051691;28;20454;-65
2022/04/21 06:37:37;;;;;;;16.88;14.07;;;33.10;94.00;;;;;;5043454;28;20388;-67
2022/04/21 06:40:04;;;;;;;17.20;14.00;;;33.00;94.20;;;;;;5049925;28;20036;-68
2022/04/21 06:42:31;;;;;;;16.17;14.48;;;33.00;94.30;;;;;;5042270;28;20090;-68
2022/04/21 06:50:14;;;;;;;24.25;17.95;;;33.30;94.00;;;;;;5049258;28;20358;-68
2022/04/21 06:52:41;;;;;;;35.03;21.55;;;33.30;94.50;;;;;;5043739;28;20033;-67
2022/04/21 06:55:08;;;;;;;17.45;15.57;;;33.30;94.40;;;;;;5050066;28;20044;-69
2022/04/21 06:57:35;;;;;;;20.63;15.85;;;33.40;93.80;;;;;;5046023;28;20029;-69
2022/04/21 07:00:03;;;;;;;22.73;16.00;;;33.40;93.30;;;;;;5033342;28;20539;-68
2022/04/21 07:02:37;;;;;;;27.00;18.15;;;33.50;92.60;;;;;;5047768;28;20411;-68
2022/04/21 07:05:10;;;;;;;21.23;17.38;;;33.60;92.70;;;;;;5033936;28;20454;-68
2022/04/21 07:07:39;;;;;;;16.27;14.48;;;33.50;92.90;;;;;;5033425;28;20057;-68
2022/04/21 07:10:07;;;;;;;19.30;15.93;;;33.50;93.20;;;;;;5043613;28;20389;-67
2022/04/21 07:12:34;;;;;;;20.58;16.23;;;33.60;91.80;;;;;;5050760;28;20400;-67
2022/04/21 07:15:04;;;;;;;19.70;16.25;;;33.50;92.60;;;;;;5051305;28;20029;-68
2022/04/21 07:17:31;;;;;;;17.55;15.68;;;33.40;92.90;;;;;;5051341;28;20033;-68
2022/04/21 07:19:59;;;;;;;18.77;16.20;;;33.50;92.30;;;;;;5050048;28;20040;-67
2022/04/21 07:22:26;;;;;;;17.38;15.68;;;33.50;91.90;;;;;;5038995;28;20098;-68
2022/04/21 07:24:54;;;;;;;20.08;16.85;;;33.50;91.90;;;;;;5055220;28;20095;-68
2022/04/21 07:27:22;;;;;;;19.10;16.48;;;33.50;92.40;;;;;;5052450;28;20389;-67
2022/04/21 07:29:49;;;;;;;17.42;15.63;;;33.50;92.20;;;;;;5041073;28;20025;-67
2022/04/21 07:32:17;;;;;;;18.63;15.57;;;33.50;92.60;;;;;;5048733;28;20037;-68
2022/04/21 07:34:43;;;;;;;17.15;15.45;;;33.40;91.40;;;;;;5051884;28;20460;-67
2022/04/21 07:37:10;;;;;;;21.00;15.13;;;33.40;90.90;;;;;;5053081;28;20033;-68
2022/04/21 07:39:38;;;;;;;17.08;15.07;;;33.40;91.90;;;;;;5039604;28;20033;-67
2022/04/21 07:42:05;;;;;;;23.25;17.23;;;33.40;92.30;;;;;;5050413;28;20032;-66
2022/04/21 07:44:35;;;;;;;34.60;22.73;;;33.40;91.80;;;;;;5057978;28;20116;-67
2022/04/21 07:47:02;;;;;;;26.40;17.17;;;33.40;92.00;;;;;;5052092;28;20029;-66
2022/04/21 07:54:46;;;;;;;21.90;17.98;;;33.30;92.70;;;;;;5047270;28;20453;-67
2022/04/21 07:57:13;;;;;;;18.67;15.75;;;33.20;91.80;;;;;;5042298;28;20092;-66
2022/04/21 07:59:40;;;;;;;24.00;17.70;;;33.10;92.70;;;;;;5053520;28;20036;-67
2022/04/21 08:02:08;;;;;;;23.73;17.98;;;33.20;93.00;;;;;;5052995;28;20033;-66
2022/04/21 08:04:37;;;;;;;21.10;18.80;;;33.10;93.10;;;;;;5053222;28;20029;-66
2022/04/21 08:07:05;;;;;;;20.45;17.63;;;33.20;92.90;;;;;;5046296;28;20116;-66
2022/04/21 08:09:32;;;;;;;22.13;16.80;;;33.20;93.30;;;;;;5048953;28;20034;-65
2022/04/21 08:11:58;;;;;;;17.83;15.23;;;33.30;93.00;;;;;;5051740;28;20367;-66
2022/04/21 08:14:25;;;;;;;24.40;16.40;;;33.30;91.90;;;;;;5055985;28;20032;-66
2022/04/21 08:16:55;;;;;;;24.23;17.63;;;33.30;92.50;;;;;;5055010;28;20029;-65
2022/04/21 08:19:22;;;;;;;26.10;16.60;;;33.30;92.60;;;;;;5044404;28;20026;-65
2022/04/21 08:21:48;;;;;;;16.95;15.15;;;33.20;92.20;;;;;;5047511;28;20108;-66
2022/04/21 08:34:48;;;;;;;25.42;20.95;;;32.90;92.90;;;;;;5050959;28;20027;-64
2022/04/21 08:37:15;;;;;;;30.52;20.92;;;32.90;92.70;;;;;;5044355;28;20068;-68
2022/04/21 08:39:45;;;;;;;24.58;17.02;;;32.80;92.80;;;;;;5045494;28;20449;-71
2022/04/21 08:42:13;;;;;;;25.95;20.48;;;32.80;92.40;;;;;;5044885;28;20396;-66
2022/04/21 08:44:43;;;;;;;30.65;21.85;;;32.80;93.10;;;;;;5047092;28;20060;-66
2022/04/21 08:47:14;;;;;;;33.03;25.70;;;32.80;93.60;;;;;;5049868;28;20135;-67
2022/04/21 08:49:47;;;;;;;34.95;25.80;;;32.80;94.00;;;;;;5050037;28;20037;-65
2022/04/21 08:52:15;;;;;;;28.88;22.52;;;32.80;93.80;;;;;;5055727;28;20112;-66
2022/04/21 08:54:43;;;;;;;28.73;23.27;;;32.90;93.00;;;;;;5049721;28;20083;-67
2022/04/21 08:57:10;;;;;;;35.25;26.70;;;32.90;93.70;;;;;;5045890;28;20029;-66
2022/04/21 08:59:37;;;;;;;25.80;21.25;;;32.90;93.70;;;;;;5048971;28;20026;-65
2022/04/21 09:02:04;;;;;;;24.05;20.83;;;32.90;93.40;;;;;;5049249;28;20040;-67
2022/04/21 09:04:30;;;;;;;27.30;23.13;;;32.90;93.10;;;;;;5050645;28;20354;-65
2022/04/21 09:07:14;;;;;;;30.88;23.40;;;32.90;94.10;;;;;;5052767;28;20025;-68
2022/04/21 09:10:04;;;;;;;29.92;24.45;;;32.80;94.80;;;;;;5045205;28;20056;-65
2022/04/21 09:12:31;;;;;;;30.80;22.83;;;32.80;95.30;;;;;;5045208;28;20049;-66
2022/04/21 09:15:04;;;;;;;27.52;22.13;;;32.70;95.50;;;;;;5039834;28;20422;-65
2022/04/21 09:17:31;;;;;;;27.85;23.25;;;32.70;95.10;;;;;;5045627;28;20304;-68
2022/04/21 09:20:00;;;;;;;29.50;21.67;;;32.60;95.70;;;;;;5049871;28;20044;-65
2022/04/21 09:22:33;;;;;;;29.77;23.00;;;32.60;95.40;;;;;;5046654;28;20182;-64
2022/04/21 09:25:02;;;;;;;32.58;24.42;;;32.60;95.80;;;;;;5048388;28;20044;-67
2022/04/21 09:27:44;;;;;;;38.95;27.75;;;32.60;95.90;;;;;;5052760;28;20032;-65
2022/04/21 09:30:15;;;;;;;40.03;28.40;;;32.50;96.50;;;;;;5051501;28;20029;-65
2022/04/21 09:32:51;;;;;;;34.58;25.50;;;32.50;97.10;;;;;;5049073;28;20079;-64
2022/04/21 09:35:20;;;;;;;37.30;27.63;;;32.50;97.50;;;;;;5052418;28;20023;-64
2022/04/21 09:37:52;;;;;;;36.47;26.30;;;32.50;98.20;;;;;;5052674;28;20127;-64
2022/04/21 09:40:21;;;;;;;39.45;28.48;;;32.40;98.70;;;;;;5045507;28;20029;-64
2022/04/21 09:42:59;;;;;;;39.17;27.77;;;32.30;99.90;;;;;;5046758;28;20341;-65
2022/04/21 09:48:05;;;;;;;72.57;46.17;;;32.00;99.90;;;;;;5043355;28;20680;-64
2022/04/21 09:50:33;;;;;;;66.88;41.53;;;31.70;99.90;;;;;;5046304;28;20022;-64
2022/04/21 09:53:03;;;;;;;55.45;36.40;;;31.50;99.90;;;;;;5044511;28;20028;-64
2022/04/21 09:55:31;;;;;;;37.05;27.52;;;31.40;99.90;;;;;;5047580;28;20035;-64
2022/04/21 09:58:06;;;;;;;45.70;35.28;;;31.20;99.90;;;;;;5047778;28;20028;-65
2022/04/21 10:00:35;;;;;;;51.22;37.28;;;31.10;99.90;;;;;;5046408;28;21112;-64
2022/04/21 10:03:04;;;;;;;108.20;73.78;;;31.00;99.90;;;;;;5047058;28;20064;-65
2022/04/21 10:05:32;;;;;;;141.35;80.18;;;31.10;99.90;;;;;;5050078;28;20035;-63
2022/04/21 10:08:04;;;;;;;120.10;67.57;;;30.90;99.90;;;;;;5042016;28;20028;-64
2022/04/21 10:10:33;;;;;;;110.30;67.80;;;30.70;99.90;;;;;;5051273;28;20033;-64
2022/04/21 10:13:01;;;;;;;73.53;46.72;;;30.60;99.90;;;;;;5048898;28;20049;-64
2022/04/21 10:15:29;;;;;;;57.55;40.53;;;30.70;99.90;;;;;;5053459;28;20033;-63
2022/04/21 10:17:56;;;;;;;64.00;38.25;;;30.60;99.90;;;;;;5053388;28;20260;-64
2022/04/21 10:20:24;;;;;;;51.78;35.28;;;30.60;99.90;;;;;;5050535;28;21334;-64
2022/04/21 10:22:53;;;;;;;33.38;26.00;;;30.30;99.90;;;;;;5045560;28;20065;-66
2022/04/21 10:25:33;;;;;;;32.30;24.08;;;30.00;99.90;;;;;;5046764;28;20032;-67
2022/04/21 10:27:59;;;;;;;31.27;24.80;;;29.70;99.90;;;;;;5044139;28;20033;-68
2022/04/21 10:30:29;;;;;;;32.17;23.05;;;29.90;99.90;;;;;;5046919;28;20078;-67
2022/04/21 10:32:58;;;;;;;39.67;26.67;;;30.00;99.90;;;;;;5046546;28;20182;-68
2022/04/21 10:35:48;;;;;;;49.97;33.53;;;30.10;99.90;;;;;;5044511;28;20381;-66
2022/04/21 10:38:18;;;;;;;67.72;41.00;;;30.10;99.90;;;;;;5049727;28;20028;-68
2022/04/21 10:41:03;;;;;;;70.25;44.45;;;30.20;99.90;;;;;;5045997;28;20029;-66
2022/04/21 10:43:50;;;;;;;72.03;45.10;;;30.30;99.90;;;;;;5049625;28;20048;-69
2022/04/21 10:46:26;;;;;;;55.92;39.00;;;30.20;99.90;;;;;;5043023;28;20075;-66
2022/04/21 10:48:53;;;;;;;51.00;36.60;;;30.30;99.90;;;;;;5047127;28;20108;-67
2022/04/21 10:51:40;;;;;;;49.63;34.92;;;30.30;99.90;;;;;;5044401;28;20022;-67
2022/04/21 10:59:24;;;;;;;42.50;32.17;;;30.30;99.90;;;;;;5046288;28;20025;-66
2022/04/21 11:01:54;;;;;;;40.92;29.98;;;30.10;99.90;;;;;;5046148;28;20029;-67
2022/04/21 11:04:23;;;;;;;40.72;28.05;;;30.10;99.90;;;;;;5042845;28;20044;-68
2022/04/21 11:06:54;;;;;;;40.90;27.95;;;30.10;99.90;;;;;;5039887;28;20517;-66
2022/04/21 11:09:35;;;;;;;34.53;26.02;;;30.10;99.90;;;;;;5046889;28;20128;-67
2022/04/21 11:12:04;;;;;;;29.83;25.65;;;30.00;99.90;;;;;;5046829;28;20138;-66
2022/04/21 11:14:33;;;;;;;29.67;24.60;;;29.90;99.90;;;;;;5057072;28;20120;-68
2022/04/21 11:17:01;;;;;;;140.90;103.78;;;29.90;99.90;;;;;;5052066;28;20032;-69
2022/04/21 11:19:34;;;;;;;88.38;62.97;;;29.90;99.90;;;;;;5053728;28;20025;-66
2022/04/21 11:22:07;;;;;;;51.47;35.20;;;30.00;99.90;;;;;;5052209;28;20032;-69
2022/04/21 11:24:52;;;;;;;;;;;29.90;99.90;;;;;;5053911;28;20481;-65
2022/04/21 11:27:20;;;;;;;34.45;27.92;;;29.80;99.90;;;;;;5050846;28;19964;-69
2022/04/21 11:29:47;;;;;;;37.45;31.13;;;29.70;99.90;;;;;;5050139;28;20390;-68
2022/04/21 11:32:18;;;;;;;45.20;30.23;;;29.70;99.90;;;;;;5059668;28;20113;-65
2022/04/21 11:35:09;;;;;;;40.33;28.83;;;29.60;99.90;;;;;;5051278;28;20079;-65
2022/04/21 11:37:49;;;;;;;76.15;42.03;;;29.60;99.90;;;;;;5056864;28;20029;-70
2022/04/21 11:40:35;;;;;;;71.32;40.05;;;29.60;99.90;;;;;;5055044;28;20029;-70
2022/04/21 11:43:17;;;;;;;56.42;37.85;;;29.70;99.90;;;;;;5058048;28;20065;-70
2022/04/21 11:46:02;;;;;;;84.63;57.22;;;29.90;99.90;;;;;;5063748;28;20036;-70
2022/04/21 11:48:37;;;;;;;69.38;49.53;;;30.00;99.90;;;;;;5055620;28;20032;-63
2022/04/21 11:51:05;;;;;;;55.58;39.67;;;30.00;99.90;;;;;;5061884;28;20047;-68
2022/04/21 11:53:40;;;;;;;47.95;37.65;;;29.90;99.90;;;;;;5063405;28;20059;-66
2022/04/21 11:56:08;;;;;;;86.90;62.47;;;29.90;99.90;;;;;;5059783;28;20124;-68
2022/04/21 11:58:38;;;;;;;74.93;54.85;;;29.80;99.90;;;;;;5063364;28;20229;-68
2022/04/21 12:06:49;;;;;;;55.08;37.17;;;29.50;99.90;;;;;;5062220;28;20021;-67
2022/04/21 12:09:20;;;;;;;53.78;38.90;;;29.40;99.90;;;;;;5056984;28;20025;-68
2022/04/21 12:11:50;;;;;;;66.03;49.33;;;29.40;99.90;;;;;;5048397;28;20398;-66
2022/04/21 12:14:18;;;;;;;65.00;50.08;;;29.50;99.90;;;;;;5044400;28;20270;-69
2022/04/21 12:16:53;;;;;;;53.30;43.20;;;29.50;99.90;;;;;;5048621;28;20116;-68
2022/04/21 12:19:32;;;;;;;44.78;35.70;;;29.40;99.90;;;;;;5046109;28;20499;-70
2022/04/21 12:22:07;;;;;;;44.42;34.58;;;29.30;99.90;;;;;;5047429;28;20057;-70
2022/04/21 12:24:47;;;;;;;45.38;33.85;;;29.30;99.90;;;;;;5036584;28;20087;-71
2022/04/21 12:27:20;;;;;;;53.45;38.30;;;29.30;99.90;;;;;;5054429;28;20447;-71
2022/04/21 12:29:50;;;;;;;53.00;36.85;;;29.30;99.90;;;;;;5055872;28;20029;-70
2022/04/21 12:32:20;;;;;;;53.08;37.95;;;29.20;99.90;;;;;;5055111;28;20350;-64
2022/04/21 12:34:46;;;;;;;77.55;60.33;;;29.20;99.90;;;;;;5036262;28;20044;-69
2022/04/21 12:37:13;;;;;;;56.53;40.65;;;29.20;99.90;;;;;;5055334;28;20041;-68
2022/04/21 12:39:40;;;;;;;96.22;75.50;;;29.30;99.90;;;;;;5054647;28;20025;-69
2022/04/21 12:42:07;;;;;;;64.20;41.92;;;29.40;99.90;;;;;;5051626;28;20033;-69
2022/04/21 12:44:34;;;;;;;62.58;37.60;;;29.40;99.90;;;;;;5055655;28;20033;-69
2022/04/21 12:47:12;;;;;;;59.47;37.65;;;29.20;99.90;;;;;;5057424;28;20091;-67
2022/04/21 12:49:56;;;;;;;104.70;67.72;;;29.10;99.90;;;;;;5064983;28;20033;-70
2022/04/21 12:52:39;;;;;;;67.20;47.60;;;29.20;99.90;;;;;;5066030;28;20275;-69
2022/04/21 12:55:13;;;;;;;59.90;39.13;;;29.20;99.90;;;;;;5060581;28;20502;-69
2022/04/21 12:58:05;;;;;;;52.63;36.50;;;29.30;99.90;;;;;;5062856;28;20033;-69
2022/04/21 13:00:35;;;;;;;50.78;35.58;;;29.40;99.90;;;;;;5059654;28;20044;-68
2022/04/21 13:03:05;;;;;;;51.47;34.83;;;29.40;99.90;;;;;;5064284;28;20090;-66
2022/04/21 13:05:34;;;;;;;56.50;37.58;;;29.40;99.90;;;;;;5057941;28;20037;-69
2022/04/21 13:08:07;;;;;;;58.10;39.40;;;29.40;99.90;;;;;;5059806;28;20476;-66
2022/04/21 13:10:43;;;;;;;57.97;36.53;;;29.40;99.90;;;;;;5065851;28;20039;-66
2022/04/21 13:13:54;;;;;;;62.60;36.17;;;29.30;99.90;;;;;;5064928;28;20028;-66
2022/04/21 13:16:35;;;;;;;56.15;34.28;;;29.20;99.90;;;;;;5058318;28;20036;-66
2022/04/21 13:19:15;;;;;;;53.22;36.08;;;29.30;99.90;;;;;;5049290;28;20349;-67
2022/04/21 13:21:55;;;;;;;53.63;36.65;;;29.20;99.90;;;;;;5061774;28;20075;-65
2022/04/21 13:24:36;;;;;;;57.10;38.42;;;29.20;99.90;;;;;;5057573;28;20037;-64
2022/04/21 13:27:04;;;;;;;53.70;37.88;;;29.20;99.90;;;;;;5059493;28;20078;-70
2022/04/21 13:29:36;;;;;;;58.22;39.03;;;29.20;99.90;;;;;;5058027;28;20516;-66
2022/04/21 13:35:01;;;;;;;56.38;35.10;;;29.20;99.90;;;;;;5063414;28;20036;-66
2022/04/21 13:37:35;;;;;;;59.22;35.75;;;29.20;99.90;;;;;;5056748;28;20040;-66
2022/04/21 13:40:04;;;;;;;60.88;34.55;;;29.20;99.90;;;;;;5051449;28;20036;-64
2022/04/21 13:42:39;;;;;;;58.33;34.10;;;29.20;99.90;;;;;;5061058;28;20037;-64
2022/04/21 13:45:11;;;;;;;65.13;35.85;;;29.10;99.90;;;;;;5064364;28;20055;-65
2022/04/21 13:47:45;;;;;;;60.85;36.40;;;29.10;99.90;;;;;;5047849;28;20025;-67
2022/04/21 13:50:18;;;;;;;59.17;35.78;;;29.10;99.90;;;;;;5049186;28;20473;-67
2022/04/21 13:53:01;;;;;;;55.83;35.63;;;29.20;99.90;;;;;;5045422;28;20390;-68
2022/04/21 13:55:41;;;;;;;57.90;37.40;;;29.20;99.90;;;;;;5040631;28;20024;-69
2022/04/21 13:58:14;;;;;;;59.28;37.70;;;29.20;99.90;;;;;;5049278;28;20029;-69
2022/04/21 14:00:49;;;;;;;59.47;40.03;;;29.20;99.90;;;;;;5043521;28;20037;-68
2022/04/21 14:03:26;;;;;;;58.75;38.92;;;29.30;99.90;;;;;;5047561;28;20032;-68
2022/04/21 14:05:56;;;;;;;63.35;40.17;;;29.40;99.90;;;;;;5050214;28;20028;-68
2022/04/21 14:08:31;;;;;;;64.47;41.70;;;29.40;99.90;;;;;;5044773;28;20025;-64
2022/04/21 14:11:01;;;;;;;58.17;39.35;;;29.40;99.90;;;;;;5043793;28;20040;-69
2022/04/21 14:13:32;;;;;;;52.65;36.45;;;29.40;99.90;;;;;;5050840;28;20050;-69